sensor_id;sensor_type;location;lat;lon;timestamp;P1;durP1;ratioP1;P2;durP2;ratioP2
32932;SDS011;19444;50.518;10.870;2023-04-23T00:01:08;3.83;;;2.60;;
32932;SDS011;19444;50.518;10.870;2023-04-23T00:04:07;4.72;;;3.55;;
32932;SDS011;19444;50.518;10.870;2023-04-23T00:07:04;5.65;;;2.80;;
32932;SDS011;19444;50.518;10.870;2023-04-23T00:10:02;4.10;;;3.08;;
32932;SDS011;19444;50.518;10.870;2023-04-23T00:13:00;4.43;;;2.55;;
32932;SDS011;19444;50.518;10.870;2023-04-23T00:15:57;4.85;;;2.72;;
32932;SDS011;19444;50.518;10.870;2023-04-23T00:18:55;5.78;;;2.78;;
32932;SDS011;19444;50.518;10.870;2023-04-23T00:21:52;5.20;;;3.10;;
32932;SDS011;19444;50.518;10.870;2023-04-23T00:24:48;3.10;;;2.53;;
32932;SDS011;19444;50.518;10.870;2023-04-23T00:27:45;3.35;;;2.53;;
32932;SDS011;19444;50.518;10.870;2023-04-23T00:30:43;3.97;;;2.33;;
32932;SDS011;19444;50.518;10.870;2023-04-23T00:33:39;5.38;;;2.65;;
32932;SDS011;19444;50.518;10.870;2023-04-23T00:36:36;4.95;;;2.30;;
32932;SDS011;19444;50.518;10.870;2023-04-23T00:39:33;4.47;;;2.38;;
32932;SDS011;19444;50.518;10.870;2023-04-23T00:42:32;4.93;;;2.53;;
32932;SDS011;19444;50.518;10.870;2023-04-23T00:45:30;5.13;;;2.80;;
32932;SDS011;19444;50.518;10.870;2023-04-23T00:48:27;5.28;;;2.63;;
32932;SDS011;19444;50.518;10.870;2023-04-23T00:51:24;5.15;;;2.33;;
32932;SDS011;19444;50.518;10.870;2023-04-23T00:54:21;4.35;;;2.45;;
32932;SDS011;19444;50.518;10.870;2023-04-23T00:57:18;4.82;;;2.67;;
32932;SDS011;19444;50.518;10.870;2023-04-23T01:00:17;3.22;;;2.63;;
32932;SDS011;19444;50.518;10.870;2023-04-23T01:03:15;6.28;;;2.55;;
32932;SDS011;19444;50.518;10.870;2023-04-23T01:06:14;3.33;;;1.80;;
32932;SDS011;19444;50.518;10.870;2023-04-23T01:09:12;3.50;;;2.03;;
32932;SDS011;19444;50.518;10.870;2023-04-23T01:12:10;3.35;;;1.65;;
32932;SDS011;19444;50.518;10.870;2023-04-23T01:15:08;6.95;;;2.00;;
32932;SDS011;19444;50.518;10.870;2023-04-23T01:18:06;4.05;;;2.38;;
32932;SDS011;19444;50.518;10.870;2023-04-23T01:21:03;2.90;;;2.00;;
32932;SDS011;19444;50.518;10.870;2023-04-23T01:24:01;5.75;;;2.17;;
32932;SDS011;19444;50.518;10.870;2023-04-23T01:26:59;3.85;;;1.90;;
32932;SDS011;19444;50.518;10.870;2023-04-23T01:29:57;3.38;;;2.08;;
32932;SDS011;19444;50.518;10.870;2023-04-23T01:32:54;2.40;;;1.42;;
32932;SDS011;19444;50.518;10.870;2023-04-23T01:35:53;5.20;;;1.75;;
32932;SDS011;19444;50.518;10.870;2023-04-23T01:38:51;2.80;;;1.75;;
32932;SDS011;19444;50.518;10.870;2023-04-23T01:41:48;6.68;;;2.08;;
32932;SDS011;19444;50.518;10.870;2023-04-23T01:44:46;3.13;;;1.90;;
32932;SDS011;19444;50.518;10.870;2023-04-23T01:47:43;1.83;;;1.60;;
32932;SDS011;19444;50.518;10.870;2023-04-23T01:50:40;2.17;;;1.88;;
32932;SDS011;19444;50.518;10.870;2023-04-23T01:53:37;4.93;;;1.90;;
32932;SDS011;19444;50.518;10.870;2023-04-23T01:56:34;2.97;;;1.90;;
32932;SDS011;19444;50.518;10.870;2023-04-23T01:59:31;2.17;;;1.70;;
32932;SDS011;19444;50.518;10.870;2023-04-23T02:02:28;4.22;;;2.15;;
32932;SDS011;19444;50.518;10.870;2023-04-23T02:05:25;3.05;;;1.73;;
32932;SDS011;19444;50.518;10.870;2023-04-23T02:08:25;3.63;;;2.17;;
32932;SDS011;19444;50.518;10.870;2023-04-23T02:11:23;3.42;;;1.88;;
32932;SDS011;19444;50.518;10.870;2023-04-23T02:14:20;3.38;;;1.73;;
32932;SDS011;19444;50.518;10.870;2023-04-23T02:17:18;5.63;;;2.25;;
32932;SDS011;19444;50.518;10.870;2023-04-23T02:20:17;3.53;;;2.30;;
32932;SDS011;19444;50.518;10.870;2023-04-23T02:23:15;3.33;;;1.90;;
32932;SDS011;19444;50.518;10.870;2023-04-23T02:26:11;3.00;;;1.95;;
32932;SDS011;19444;50.518;10.870;2023-04-23T02:29:08;3.17;;;1.70;;
32932;SDS011;19444;50.518;10.870;2023-04-23T02:32:05;3.75;;;1.80;;
32932;SDS011;19444;50.518;10.870;2023-04-23T02:35:02;4.28;;;1.80;;
32932;SDS011;19444;50.518;10.870;2023-04-23T02:38:01;3.05;;;1.80;;
32932;SDS011;19444;50.518;10.870;2023-04-23T02:40:58;3.45;;;1.85;;
32932;SDS011;19444;50.518;10.870;2023-04-23T02:43:55;3.75;;;2.25;;
32932;SDS011;19444;50.518;10.870;2023-04-23T02:46:52;3.70;;;2.13;;
32932;SDS011;19444;50.518;10.870;2023-04-23T02:49:49;5.53;;;2.08;;
32932;SDS011;19444;50.518;10.870;2023-04-23T02:52:46;3.47;;;1.98;;
32932;SDS011;19444;50.518;10.870;2023-04-23T02:55:44;3.72;;;2.00;;
32932;SDS011;19444;50.518;10.870;2023-04-23T02:58:40;2.85;;;1.67;;
32932;SDS011;19444;50.518;10.870;2023-04-23T03:01:37;2.78;;;1.80;;
32932;SDS011;19444;50.518;10.870;2023-04-23T03:04:34;4.82;;;1.98;;
32932;SDS011;19444;50.518;10.870;2023-04-23T03:07:31;3.03;;;2.05;;
32932;SDS011;19444;50.518;10.870;2023-04-23T03:10:28;4.93;;;1.80;;
32932;SDS011;19444;50.518;10.870;2023-04-23T03:13:25;2.80;;;1.98;;
32932;SDS011;19444;50.518;10.870;2023-04-23T03:16:22;3.70;;;1.92;;
32932;SDS011;19444;50.518;10.870;2023-04-23T03:19:19;4.85;;;2.95;;
32932;SDS011;19444;50.518;10.870;2023-04-23T03:22:16;4.22;;;2.75;;
32932;SDS011;19444;50.518;10.870;2023-04-23T03:25:12;4.10;;;2.72;;
32932;SDS011;19444;50.518;10.870;2023-04-23T03:28:09;3.42;;;3.00;;
32932;SDS011;19444;50.518;10.870;2023-04-23T03:31:06;4.85;;;2.97;;
32932;SDS011;19444;50.518;10.870;2023-04-23T03:34:03;3.15;;;2.47;;
32932;SDS011;19444;50.518;10.870;2023-04-23T03:37:00;3.78;;;2.72;;
32932;SDS011;19444;50.518;10.870;2023-04-23T03:39:57;5.20;;;3.00;;
32932;SDS011;19444;50.518;10.870;2023-04-23T03:42:54;3.97;;;2.97;;
32932;SDS011;19444;50.518;10.870;2023-04-23T03:45:53;4.15;;;3.05;;
32932;SDS011;19444;50.518;10.870;2023-04-23T03:48:49;4.55;;;2.97;;
32932;SDS011;19444;50.518;10.870;2023-04-23T03:51:46;4.43;;;3.40;;
32932;SDS011;19444;50.518;10.870;2023-04-23T03:54:43;5.43;;;3.45;;
32932;SDS011;19444;50.518;10.870;2023-04-23T03:57:40;3.67;;;2.55;;
32932;SDS011;19444;50.518;10.870;2023-04-23T04:00:37;4.25;;;2.90;;
32932;SDS011;19444;50.518;10.870;2023-04-23T04:03:34;4.28;;;2.70;;
32932;SDS011;19444;50.518;10.870;2023-04-23T04:06:31;2.33;;;2.03;;
32932;SDS011;19444;50.518;10.870;2023-04-23T04:09:28;3.92;;;2.95;;
32932;SDS011;19444;50.518;10.870;2023-04-23T04:12:25;5.38;;;2.67;;
32932;SDS011;19444;50.518;10.870;2023-04-23T04:15:22;3.38;;;2.75;;
32932;SDS011;19444;50.518;10.870;2023-04-23T04:18:19;4.40;;;3.10;;
32932;SDS011;19444;50.518;10.870;2023-04-23T04:21:16;4.05;;;3.17;;
32932;SDS011;19444;50.518;10.870;2023-04-23T04:24:14;5.00;;;2.88;;
32932;SDS011;19444;50.518;10.870;2023-04-23T04:27:11;4.40;;;2.85;;
32932;SDS011;19444;50.518;10.870;2023-04-23T04:30:08;3.42;;;2.45;;
32932;SDS011;19444;50.518;10.870;2023-04-23T04:33:05;4.63;;;2.72;;
32932;SDS011;19444;50.518;10.870;2023-04-23T04:36:04;3.75;;;2.70;;
32932;SDS011;19444;50.518;10.870;2023-04-23T04:39:01;3.45;;;2.30;;
32932;SDS011;19444;50.518;10.870;2023-04-23T04:41:58;3.60;;;2.95;;
32932;SDS011;19444;50.518;10.870;2023-04-23T04:44:57;4.10;;;2.80;;
32932;SDS011;19444;50.518;10.870;2023-04-23T04:47:54;4.00;;;3.00;;
32932;SDS011;19444;50.518;10.870;2023-04-23T04:50:51;4.20;;;2.78;;
32932;SDS011;19444;50.518;10.870;2023-04-23T04:53:48;4.85;;;3.20;;
32932;SDS011;19444;50.518;10.870;2023-04-23T04:56:45;3.97;;;2.83;;
32932;SDS011;19444;50.518;10.870;2023-04-23T04:59:42;5.05;;;3.08;;
32932;SDS011;19444;50.518;10.870;2023-04-23T05:02:39;5.78;;;3.35;;
32932;SDS011;19444;50.518;10.870;2023-04-23T05:05:36;3.45;;;3.15;;
32932;SDS011;19444;50.518;10.870;2023-04-23T05:08:33;5.85;;;3.33;;
32932;SDS011;19444;50.518;10.870;2023-04-23T05:11:30;4.13;;;3.10;;
32932;SDS011;19444;50.518;10.870;2023-04-23T05:14:27;5.22;;;3.22;;
32932;SDS011;19444;50.518;10.870;2023-04-23T05:17:25;3.38;;;3.08;;
32932;SDS011;19444;50.518;10.870;2023-04-23T05:20:21;3.97;;;3.10;;
32932;SDS011;19444;50.518;10.870;2023-04-23T05:23:18;4.35;;;3.08;;
32932;SDS011;19444;50.518;10.870;2023-04-23T05:26:15;3.22;;;2.92;;
32932;SDS011;19444;50.518;10.870;2023-04-23T05:29:13;4.32;;;3.40;;
32932;SDS011;19444;50.518;10.870;2023-04-23T05:32:14;3.70;;;3.22;;
32932;SDS011;19444;50.518;10.870;2023-04-23T05:35:11;3.78;;;3.00;;
32932;SDS011;19444;50.518;10.870;2023-04-23T05:38:08;4.57;;;3.40;;
32932;SDS011;19444;50.518;10.870;2023-04-23T05:41:05;4.35;;;2.90;;
32932;SDS011;19444;50.518;10.870;2023-04-23T05:44:02;5.07;;;3.13;;
32932;SDS011;19444;50.518;10.870;2023-04-23T05:46:59;5.65;;;3.38;;
32932;SDS011;19444;50.518;10.870;2023-04-23T05:49:57;4.80;;;3.03;;
32932;SDS011;19444;50.518;10.870;2023-04-23T05:52:53;3.53;;;2.90;;
32932;SDS011;19444;50.518;10.870;2023-04-23T05:55:50;4.25;;;2.60;;
32932;SDS011;19444;50.518;10.870;2023-04-23T05:58:47;2.90;;;2.38;;
32932;SDS011;19444;50.518;10.870;2023-04-23T06:01:45;3.53;;;2.70;;
32932;SDS011;19444;50.518;10.870;2023-04-23T06:04:42;3.00;;;2.33;;
32932;SDS011;19444;50.518;10.870;2023-04-23T06:07:40;2.95;;;2.17;;
32932;SDS011;19444;50.518;10.870;2023-04-23T06:10:37;2.80;;;2.00;;
32932;SDS011;19444;50.518;10.870;2023-04-23T06:13:34;2.83;;;2.30;;
32932;SDS011;19444;50.518;10.870;2023-04-23T06:16:38;3.03;;;2.22;;
32932;SDS011;19444;50.518;10.870;2023-04-23T06:19:35;2.60;;;1.98;;
32932;SDS011;19444;50.518;10.870;2023-04-23T06:22:32;3.70;;;2.25;;
32932;SDS011;19444;50.518;10.870;2023-04-23T06:25:29;2.00;;;1.73;;
32932;SDS011;19444;50.518;10.870;2023-04-23T06:28:26;3.15;;;2.08;;
32932;SDS011;19444;50.518;10.870;2023-04-23T06:31:23;2.60;;;2.10;;
32932;SDS011;19444;50.518;10.870;2023-04-23T06:34:20;3.63;;;2.00;;
32932;SDS011;19444;50.518;10.870;2023-04-23T06:37:17;2.20;;;2.00;;
32932;SDS011;19444;50.518;10.870;2023-04-23T06:40:13;3.45;;;1.85;;
32932;SDS011;19444;50.518;10.870;2023-04-23T06:43:11;3.28;;;2.00;;
32932;SDS011;19444;50.518;10.870;2023-04-23T06:46:09;4.70;;;1.95;;
32932;SDS011;19444;50.518;10.870;2023-04-23T06:49:06;2.95;;;1.85;;
32932;SDS011;19444;50.518;10.870;2023-04-23T06:52:03;2.85;;;1.77;;
32932;SDS011;19444;50.518;10.870;2023-04-23T06:55:00;2.92;;;2.10;;
32932;SDS011;19444;50.518;10.870;2023-04-23T06:57:57;2.78;;;2.10;;
32932;SDS011;19444;50.518;10.870;2023-04-23T07:00:54;2.78;;;1.90;;
32932;SDS011;19444;50.518;10.870;2023-04-23T07:03:50;5.03;;;2.17;;
32932;SDS011;19444;50.518;10.870;2023-04-23T07:06:49;2.58;;;2.35;;
32932;SDS011;19444;50.518;10.870;2023-04-23T07:09:46;3.63;;;2.42;;
32932;SDS011;19444;50.518;10.870;2023-04-23T07:12:43;2.72;;;1.95;;
32932;SDS011;19444;50.518;10.870;2023-04-23T07:15:40;3.10;;;2.42;;
32932;SDS011;19444;50.518;10.870;2023-04-23T07:18:38;2.08;;;1.45;;
32932;SDS011;19444;50.518;10.870;2023-04-23T07:21:35;2.10;;;1.70;;
32932;SDS011;19444;50.518;10.870;2023-04-23T07:24:31;2.67;;;1.92;;
32932;SDS011;19444;50.518;10.870;2023-04-23T07:27:28;2.50;;;2.03;;
32932;SDS011;19444;50.518;10.870;2023-04-23T07:30:25;2.92;;;1.90;;
32932;SDS011;19444;50.518;10.870;2023-04-23T07:33:23;3.53;;;2.22;;
32932;SDS011;19444;50.518;10.870;2023-04-23T07:36:21;2.60;;;2.13;;
32932;SDS011;19444;50.518;10.870;2023-04-23T07:39:17;3.35;;;2.50;;
32932;SDS011;19444;50.518;10.870;2023-04-23T07:42:14;4.28;;;2.10;;
32932;SDS011;19444;50.518;10.870;2023-04-23T07:45:11;3.42;;;2.53;;
32932;SDS011;19444;50.518;10.870;2023-04-23T07:48:08;3.72;;;2.10;;
32932;SDS011;19444;50.518;10.870;2023-04-23T07:51:05;6.22;;;3.60;;
32932;SDS011;19444;50.518;10.870;2023-04-23T07:54:03;4.28;;;2.58;;
32932;SDS011;19444;50.518;10.870;2023-04-23T07:57:00;3.53;;;2.50;;
32932;SDS011;19444;50.518;10.870;2023-04-23T07:59:58;3.55;;;2.10;;
32932;SDS011;19444;50.518;10.870;2023-04-23T08:02:54;3.45;;;2.38;;
32932;SDS011;19444;50.518;10.870;2023-04-23T08:05:52;3.20;;;2.42;;
32932;SDS011;19444;50.518;10.870;2023-04-23T08:08:48;3.53;;;1.95;;
32932;SDS011;19444;50.518;10.870;2023-04-23T08:11:45;4.72;;;2.33;;
32932;SDS011;19444;50.518;10.870;2023-04-23T08:14:43;3.05;;;2.00;;
32932;SDS011;19444;50.518;10.870;2023-04-23T08:17:42;2.95;;;2.00;;
32932;SDS011;19444;50.518;10.870;2023-04-23T08:20:39;2.95;;;2.20;;
32932;SDS011;19444;50.518;10.870;2023-04-23T08:23:36;3.00;;;2.40;;
32932;SDS011;19444;50.518;10.870;2023-04-23T08:26:33;3.90;;;2.20;;
32932;SDS011;19444;50.518;10.870;2023-04-23T08:29:30;3.25;;;1.88;;
32932;SDS011;19444;50.518;10.870;2023-04-23T08:32:28;3.55;;;2.05;;
32932;SDS011;19444;50.518;10.870;2023-04-23T08:35:24;2.40;;;1.73;;
32932;SDS011;19444;50.518;10.870;2023-04-23T08:38:21;2.05;;;1.70;;
32932;SDS011;19444;50.518;10.870;2023-04-23T08:41:18;2.88;;;2.33;;
32932;SDS011;19444;50.518;10.870;2023-04-23T08:44:23;2.60;;;1.70;;
32932;SDS011;19444;50.518;10.870;2023-04-23T08:47:22;2.53;;;2.03;;
32932;SDS011;19444;50.518;10.870;2023-04-23T08:50:20;2.83;;;1.92;;
32932;SDS011;19444;50.518;10.870;2023-04-23T08:53:18;3.35;;;1.77;;
32932;SDS011;19444;50.518;10.870;2023-04-23T08:56:20;2.08;;;1.60;;
32932;SDS011;19444;50.518;10.870;2023-04-23T08:59:18;2.40;;;1.63;;
32932;SDS011;19444;50.518;10.870;2023-04-23T09:02:18;3.77;;;1.57;;
32932;SDS011;19444;50.518;10.870;2023-04-23T09:05:15;2.55;;;1.77;;
32932;SDS011;19444;50.518;10.870;2023-04-23T09:08:12;2.13;;;1.48;;
32932;SDS011;19444;50.518;10.870;2023-04-23T09:11:09;2.67;;;1.42;;
32932;SDS011;19444;50.518;10.870;2023-04-23T09:14:06;1.75;;;1.40;;
32932;SDS011;19444;50.518;10.870;2023-04-23T09:17:04;2.25;;;1.55;;
32932;SDS011;19444;50.518;10.870;2023-04-23T09:20:00;2.55;;;1.60;;
32932;SDS011;19444;50.518;10.870;2023-04-23T09:22:59;1.90;;;1.58;;
32932;SDS011;19444;50.518;10.870;2023-04-23T09:25:55;2.00;;;1.50;;
32932;SDS011;19444;50.518;10.870;2023-04-23T09:28:53;2.80;;;1.83;;
32932;SDS011;19444;50.518;10.870;2023-04-23T09:31:50;2.13;;;1.45;;
32932;SDS011;19444;50.518;10.870;2023-04-23T09:34:57;2.70;;;1.60;;
32932;SDS011;19444;50.518;10.870;2023-04-23T09:37:54;3.15;;;1.40;;
32932;SDS011;19444;50.518;10.870;2023-04-23T09:40:51;2.45;;;1.40;;
32932;SDS011;19444;50.518;10.870;2023-04-23T09:43:48;2.58;;;1.75;;
32932;SDS011;19444;50.518;10.870;2023-04-23T09:46:45;2.05;;;1.50;;
32932;SDS011;19444;50.518;10.870;2023-04-23T09:49:45;1.95;;;1.38;;
32932;SDS011;19444;50.518;10.870;2023-04-23T09:52:43;3.15;;;2.00;;
32932;SDS011;19444;50.518;10.870;2023-04-23T09:55:40;2.53;;;1.63;;
32932;SDS011;19444;50.518;10.870;2023-04-23T09:58:40;3.10;;;1.60;;
32932;SDS011;19444;50.518;10.870;2023-04-23T10:01:40;2.28;;;1.50;;
32932;SDS011;19444;50.518;10.870;2023-04-23T10:04:41;3.22;;;1.70;;
32932;SDS011;19444;50.518;10.870;2023-04-23T10:07:38;2.10;;;1.55;;
32932;SDS011;19444;50.518;10.870;2023-04-23T10:10:35;2.72;;;2.15;;
32932;SDS011;19444;50.518;10.870;2023-04-23T10:13:52;2.08;;;1.60;;
32932;SDS011;19444;50.518;10.870;2023-04-23T10:16:50;2.35;;;1.70;;
32932;SDS011;19444;50.518;10.870;2023-04-23T10:19:52;1.90;;;1.48;;
32932;SDS011;19444;50.518;10.870;2023-04-23T10:22:51;1.80;;;1.40;;
32932;SDS011;19444;50.518;10.870;2023-04-23T10:25:52;1.70;;;1.48;;
32932;SDS011;19444;50.518;10.870;2023-04-23T10:28:52;3.37;;;1.70;;
32932;SDS011;19444;50.518;10.870;2023-04-23T10:31:50;3.65;;;1.48;;
32932;SDS011;19444;50.518;10.870;2023-04-23T10:34:49;1.80;;;1.45;;
32932;SDS011;19444;50.518;10.870;2023-04-23T10:37:47;2.15;;;1.63;;
32932;SDS011;19444;50.518;10.870;2023-04-23T10:40:44;1.80;;;1.60;;
32932;SDS011;19444;50.518;10.870;2023-04-23T10:43:44;1.97;;;1.70;;
32932;SDS011;19444;50.518;10.870;2023-04-23T10:46:49;2.55;;;1.40;;
32932;SDS011;19444;50.518;10.870;2023-04-23T10:49:53;1.77;;;1.30;;
32932;SDS011;19444;50.518;10.870;2023-04-23T10:52:51;1.92;;;1.40;;
32932;SDS011;19444;50.518;10.870;2023-04-23T10:55:49;2.88;;;1.35;;
32932;SDS011;19444;50.518;10.870;2023-04-23T10:58:59;2.08;;;1.40;;
32932;SDS011;19444;50.518;10.870;2023-04-23T11:01:57;1.48;;;1.25;;
32932;SDS011;19444;50.518;10.870;2023-04-23T11:05:04;3.35;;;1.40;;
32932;SDS011;19444;50.518;10.870;2023-04-23T11:08:05;3.08;;;1.80;;
32932;SDS011;19444;50.518;10.870;2023-04-23T11:11:15;3.72;;;1.63;;
32932;SDS011;19444;50.518;10.870;2023-04-23T11:14:12;2.08;;;1.73;;
32932;SDS011;19444;50.518;10.870;2023-04-23T11:17:12;2.08;;;1.58;;
32932;SDS011;19444;50.518;10.870;2023-04-23T11:20:20;2.17;;;1.67;;
32932;SDS011;19444;50.518;10.870;2023-04-23T11:23:28;1.88;;;1.20;;
32932;SDS011;19444;50.518;10.870;2023-04-23T11:26:28;1.65;;;1.17;;
32932;SDS011;19444;50.518;10.870;2023-04-23T11:29:26;2.90;;;1.55;;
32932;SDS011;19444;50.518;10.870;2023-04-23T11:32:24;1.67;;;1.20;;
32932;SDS011;19444;50.518;10.870;2023-04-23T11:35:23;3.20;;;1.13;;
32932;SDS011;19444;50.518;10.870;2023-04-23T11:38:30;1.48;;;1.10;;
32932;SDS011;19444;50.518;10.870;2023-04-23T11:41:28;1.67;;;1.25;;
32932;SDS011;19444;50.518;10.870;2023-04-23T11:44:25;1.30;;;1.00;;
32932;SDS011;19444;50.518;10.870;2023-04-23T11:47:23;1.30;;;0.80;;
32932;SDS011;19444;50.518;10.870;2023-04-23T11:50:22;2.50;;;1.00;;
32932;SDS011;19444;50.518;10.870;2023-04-23T11:53:25;2.42;;;1.05;;
32932;SDS011;19444;50.518;10.870;2023-04-23T11:56:22;1.50;;;0.70;;
32932;SDS011;19444;50.518;10.870;2023-04-23T11:59:20;1.40;;;1.10;;
32932;SDS011;19444;50.518;10.870;2023-04-23T12:02:18;1.30;;;1.00;;
32932;SDS011;19444;50.518;10.870;2023-04-23T12:05:15;1.58;;;1.30;;
32932;SDS011;19444;50.518;10.870;2023-04-23T12:08:17;1.67;;;1.15;;
32932;SDS011;19444;50.518;10.870;2023-04-23T12:11:15;2.03;;;0.80;;
32932;SDS011;19444;50.518;10.870;2023-04-23T12:14:13;1.70;;;0.95;;
32932;SDS011;19444;50.518;10.870;2023-04-23T12:17:10;2.10;;;0.80;;
32932;SDS011;19444;50.518;10.870;2023-04-23T12:20:15;1.13;;;0.82;;
32932;SDS011;19444;50.518;10.870;2023-04-23T12:23:16;2.85;;;1.00;;
32932;SDS011;19444;50.518;10.870;2023-04-23T12:26:14;1.17;;;0.80;;
32932;SDS011;19444;50.518;10.870;2023-04-23T12:29:12;1.10;;;0.77;;
32932;SDS011;19444;50.518;10.870;2023-04-23T12:32:10;1.45;;;0.68;;
32932;SDS011;19444;50.518;10.870;2023-04-23T12:35:07;1.40;;;0.93;;
32932;SDS011;19444;50.518;10.870;2023-04-23T12:38:06;1.63;;;0.80;;
32932;SDS011;19444;50.518;10.870;2023-04-23T12:41:03;0.90;;;0.70;;
32932;SDS011;19444;50.518;10.870;2023-04-23T12:44:00;1.67;;;0.80;;
32932;SDS011;19444;50.518;10.870;2023-04-23T12:46:58;2.10;;;1.00;;
32932;SDS011;19444;50.518;10.870;2023-04-23T12:50:00;3.00;;;1.65;;
32932;SDS011;19444;50.518;10.870;2023-04-23T12:52:59;1.35;;;0.80;;
32932;SDS011;19444;50.518;10.870;2023-04-23T12:55:55;1.80;;;0.90;;
32932;SDS011;19444;50.518;10.870;2023-04-23T12:58:52;1.88;;;0.77;;
32932;SDS011;19444;50.518;10.870;2023-04-23T13:01:49;2.08;;;1.10;;
32932;SDS011;19444;50.518;10.870;2023-04-23T13:04:47;1.17;;;1.08;;
32932;SDS011;19444;50.518;10.870;2023-04-23T13:07:44;1.63;;;1.20;;
32932;SDS011;19444;50.518;10.870;2023-04-23T13:10:40;3.97;;;1.75;;
32932;SDS011;19444;50.518;10.870;2023-04-23T13:13:37;1.48;;;1.20;;
32932;SDS011;19444;50.518;10.870;2023-04-23T13:16:34;1.45;;;0.93;;
32932;SDS011;19444;50.518;10.870;2023-04-23T13:19:31;2.85;;;1.15;;
32932;SDS011;19444;50.518;10.870;2023-04-23T13:22:30;1.98;;;1.17;;
32932;SDS011;19444;50.518;10.870;2023-04-23T13:25:28;2.17;;;1.00;;
32932;SDS011;19444;50.518;10.870;2023-04-23T13:28:25;1.40;;;1.00;;
32932;SDS011;19444;50.518;10.870;2023-04-23T13:31:22;1.15;;;0.98;;
32932;SDS011;19444;50.518;10.870;2023-04-23T13:34:19;0.98;;;0.75;;
32932;SDS011;19444;50.518;10.870;2023-04-23T13:37:16;1.40;;;0.63;;
32932;SDS011;19444;50.518;10.870;2023-04-23T13:40:13;1.73;;;0.90;;
32932;SDS011;19444;50.518;10.870;2023-04-23T13:43:10;5.60;;;1.33;;
32932;SDS011;19444;50.518;10.870;2023-04-23T13:46:07;2.15;;;0.95;;
32932;SDS011;19444;50.518;10.870;2023-04-23T13:49:04;2.55;;;1.10;;
32932;SDS011;19444;50.518;10.870;2023-04-23T13:52:01;1.02;;;0.80;;
32932;SDS011;19444;50.518;10.870;2023-04-23T13:57:59;1.48;;;0.63;;
32932;SDS011;19444;50.518;10.870;2023-04-23T14:00:56;0.90;;;0.70;;
32932;SDS011;19444;50.518;10.870;2023-04-23T14:03:53;0.95;;;0.75;;
32932;SDS011;19444;50.518;10.870;2023-04-23T14:06:50;1.83;;;0.80;;
32932;SDS011;19444;50.518;10.870;2023-04-23T14:09:46;2.33;;;0.88;;
32932;SDS011;19444;50.518;10.870;2023-04-23T14:12:47;2.17;;;1.10;;
32932;SDS011;19444;50.518;10.870;2023-04-23T14:15:44;2.45;;;0.98;;
32932;SDS011;19444;50.518;10.870;2023-04-23T14:18:41;1.27;;;0.70;;
32932;SDS011;19444;50.518;10.870;2023-04-23T14:21:38;1.88;;;0.90;;
32932;SDS011;19444;50.518;10.870;2023-04-23T14:24:43;1.30;;;0.90;;
32932;SDS011;19444;50.518;10.870;2023-04-23T14:27:45;1.30;;;0.85;;
32932;SDS011;19444;50.518;10.870;2023-04-23T14:30:46;2.70;;;1.10;;
32932;SDS011;19444;50.518;10.870;2023-04-23T14:33:43;1.40;;;0.95;;
32932;SDS011;19444;50.518;10.870;2023-04-23T14:36:40;1.15;;;0.82;;
32932;SDS011;19444;50.518;10.870;2023-04-23T14:39:37;1.00;;;0.75;;
32932;SDS011;19444;50.518;10.870;2023-04-23T14:42:34;1.35;;;0.90;;
32932;SDS011;19444;50.518;10.870;2023-04-23T14:45:31;1.08;;;0.88;;
32932;SDS011;19444;50.518;10.870;2023-04-23T14:48:28;1.90;;;0.88;;
32932;SDS011;19444;50.518;10.870;2023-04-23T14:51:25;1.75;;;0.93;;
32932;SDS011;19444;50.518;10.870;2023-04-23T14:54:24;1.75;;;0.80;;
32932;SDS011;19444;50.518;10.870;2023-04-23T14:57:21;0.93;;;0.70;;
32932;SDS011;19444;50.518;10.870;2023-04-23T15:00:18;1.77;;;1.38;;
32932;SDS011;19444;50.518;10.870;2023-04-23T15:03:17;1.23;;;0.82;;
32932;SDS011;19444;50.518;10.870;2023-04-23T15:06:14;0.93;;;0.77;;
32932;SDS011;19444;50.518;10.870;2023-04-23T15:09:11;1.20;;;0.68;;
32932;SDS011;19444;50.518;10.870;2023-04-23T15:18:44;1.55;;;1.00;;
32932;SDS011;19444;50.518;10.870;2023-04-23T15:21:41;1.48;;;0.70;;
32932;SDS011;19444;50.518;10.870;2023-04-23T15:24:38;1.58;;;1.05;;
32932;SDS011;19444;50.518;10.870;2023-04-23T15:27:35;1.00;;;0.60;;
32932;SDS011;19444;50.518;10.870;2023-04-23T15:30:32;0.60;;;0.40;;
32932;SDS011;19444;50.518;10.870;2023-04-23T15:33:29;1.35;;;0.60;;
32932;SDS011;19444;50.518;10.870;2023-04-23T15:36:26;0.95;;;0.60;;
32932;SDS011;19444;50.518;10.870;2023-04-23T15:39:23;0.60;;;0.40;;
32932;SDS011;19444;50.518;10.870;2023-04-23T15:42:21;1.52;;;0.65;;
32932;SDS011;19444;50.518;10.870;2023-04-23T15:45:20;1.90;;;0.70;;
32932;SDS011;19444;50.518;10.870;2023-04-23T15:48:17;1.35;;;1.10;;
32932;SDS011;19444;50.518;10.870;2023-04-23T15:51:14;1.77;;;0.75;;
32932;SDS011;19444;50.518;10.870;2023-04-23T15:54:11;1.92;;;0.65;;
32932;SDS011;19444;50.518;10.870;2023-04-23T15:57:08;1.42;;;0.68;;
32932;SDS011;19444;50.518;10.870;2023-04-23T16:00:05;1.48;;;0.82;;
32932;SDS011;19444;50.518;10.870;2023-04-23T16:03:07;1.40;;;0.80;;
32932;SDS011;19444;50.518;10.870;2023-04-23T16:06:04;0.88;;;0.60;;
32932;SDS011;19444;50.518;10.870;2023-04-23T16:09:01;1.00;;;0.70;;
32932;SDS011;19444;50.518;10.870;2023-04-23T16:12:01;0.88;;;0.70;;
32932;SDS011;19444;50.518;10.870;2023-04-23T16:14:59;1.75;;;0.60;;
32932;SDS011;19444;50.518;10.870;2023-04-23T16:17:56;1.60;;;0.70;;
32932;SDS011;19444;50.518;10.870;2023-04-23T16:20:55;1.70;;;0.95;;
32932;SDS011;19444;50.518;10.870;2023-04-23T16:23:52;1.13;;;0.73;;
32932;SDS011;19444;50.518;10.870;2023-04-23T16:26:49;1.60;;;0.65;;
32932;SDS011;19444;50.518;10.870;2023-04-23T16:29:46;1.10;;;0.75;;
32932;SDS011;19444;50.518;10.870;2023-04-23T16:32:43;1.60;;;0.80;;
32932;SDS011;19444;50.518;10.870;2023-04-23T16:35:40;2.75;;;0.90;;
32932;SDS011;19444;50.518;10.870;2023-04-23T16:38:36;1.50;;;0.98;;
32932;SDS011;19444;50.518;10.870;2023-04-23T16:41:34;1.50;;;1.10;;
32932;SDS011;19444;50.518;10.870;2023-04-23T16:44:31;2.70;;;1.60;;
32932;SDS011;19444;50.518;10.870;2023-04-23T16:47:28;1.75;;;0.80;;
32932;SDS011;19444;50.518;10.870;2023-04-23T16:50:25;2.35;;;0.70;;
32932;SDS011;19444;50.518;10.870;2023-04-23T16:53:23;1.83;;;1.00;;
32932;SDS011;19444;50.518;10.870;2023-04-23T16:56:21;2.22;;;0.73;;
32932;SDS011;19444;50.518;10.870;2023-04-23T16:59:18;0.82;;;0.68;;
32932;SDS011;19444;50.518;10.870;2023-04-23T17:02:15;6.28;;;3.90;;
32932;SDS011;19444;50.518;10.870;2023-04-23T17:05:12;4.57;;;3.42;;
32932;SDS011;19444;50.518;10.870;2023-04-23T17:08:09;2.58;;;1.67;;
32932;SDS011;19444;50.518;10.870;2023-04-23T17:11:06;5.10;;;2.10;;
32932;SDS011;19444;50.518;10.870;2023-04-23T17:14:04;2.13;;;1.25;;
32932;SDS011;19444;50.518;10.870;2023-04-23T17:17:00;3.05;;;1.38;;
32932;SDS011;19444;50.518;10.870;2023-04-23T17:19:57;2.63;;;1.48;;
32932;SDS011;19444;50.518;10.870;2023-04-23T17:22:54;2.72;;;1.58;;
32932;SDS011;19444;50.518;10.870;2023-04-23T17:25:51;1.58;;;1.00;;
32932;SDS011;19444;50.518;10.870;2023-04-23T17:28:48;2.78;;;1.13;;
32932;SDS011;19444;50.518;10.870;2023-04-23T17:31:45;1.52;;;0.80;;
32932;SDS011;19444;50.518;10.870;2023-04-23T17:34:43;4.28;;;1.50;;
32932;SDS011;19444;50.518;10.870;2023-04-23T17:37:49;1.20;;;0.80;;
32932;SDS011;19444;50.518;10.870;2023-04-23T17:40:49;2.42;;;1.50;;
32932;SDS011;19444;50.518;10.870;2023-04-23T17:43:47;2.03;;;1.17;;